createdAt,value
2019-05-06T00:01:39.847Z,0.31
2019-05-06T00:04:10.539Z,0.30
2019-05-06T00:06:41.337Z,0.23
2019-05-06T00:09:14.593Z,0.28
2019-05-06T00:11:45.051Z,0.31
2019-05-06T00:14:16.220Z,0.22
2019-05-06T00:16:47.238Z,0.18
2019-05-06T00:19:18.060Z,0.18
2019-05-06T00:21:48.861Z,0.15
2019-05-06T00:24:19.552Z,0.13
2019-05-06T00:26:57.932Z,0.03
2019-05-06T00:29:29.659Z,-0.03
2019-05-06T00:32:00.285Z,-0.05
2019-05-06T00:34:34.094Z,-0.16
2019-05-06T00:37:05.124Z,-0.14
2019-05-06T00:39:46.683Z,-0.16
2019-05-06T00:42:34.777Z,-0.13
2019-05-06T00:45:07.865Z,-0.18
2019-05-06T00:47:38.508Z,-0.22
2019-05-06T00:50:09.632Z,-0.24
2019-05-06T00:52:40.459Z,-0.30
2019-05-06T00:55:13.577Z,-0.38
2019-05-06T00:57:44.063Z,-0.44
2019-05-06T01:00:18.918Z,-0.49
2019-05-06T01:02:49.714Z,-0.52
2019-05-06T01:05:24.453Z,-0.49
2019-05-06T01:07:55.544Z,-0.47
2019-05-06T01:10:26.142Z,-0.50
2019-05-06T01:12:58.450Z,-0.50
2019-05-06T01:15:30.255Z,-0.43
2019-05-06T01:18:01.210Z,-0.38
2019-05-06T01:20:33.946Z,-0.39
2019-05-06T01:23:04.813Z,-0.44
2019-05-06T01:25:35.539Z,-0.37
2019-05-06T01:28:07.133Z,-0.35
2019-05-06T01:30:38.047Z,-0.34
2019-05-06T01:33:08.641Z,-0.33
2019-05-06T01:35:40.953Z,-0.32
2019-05-06T01:38:24.222Z,-0.30
2019-05-06T01:40:56.408Z,-0.34
2019-05-06T01:43:28.765Z,-0.41
2019-05-06T01:45:59.506Z,-0.38
2019-05-06T01:48:48.831Z,-0.34
2019-05-06T01:51:21.271Z,-0.31
2019-05-06T01:53:54.311Z,-0.30
2019-05-06T01:56:24.340Z,-0.31
2019-05-06T01:58:54.991Z,-0.24
2019-05-06T02:01:25.674Z,-0.30
2019-05-06T02:03:56.428Z,-0.28
2019-05-06T02:06:27.238Z,-0.23
2019-05-06T02:08:57.943Z,-0.21
2019-05-06T02:11:28.633Z,-0.28
2019-05-06T02:13:59.215Z,-0.35
2019-05-06T02:16:29.983Z,-0.33
2019-05-06T02:19:00.718Z,-0.32
2019-05-06T02:21:33.669Z,-0.39
2019-05-06T02:24:10.087Z,-0.48
2019-05-06T02:26:43.665Z,-0.54
2019-05-06T02:29:21.969Z,-0.51
2019-05-06T02:32:15.940Z,-0.51
2019-05-06T02:34:36.537Z,-0.42
2019-05-06T02:37:11.300Z,-0.42
2019-05-06T02:39:43.817Z,-0.42
2019-05-06T02:42:14.997Z,-0.32
2019-05-06T02:44:46.494Z,-0.39
2019-05-06T02:47:37.023Z,-0.49
2019-05-06T02:50:15.805Z,-0.56
2019-05-06T02:52:46.496Z,-0.56
2019-05-06T02:55:17.243Z,-0.54
2019-05-06T02:57:47.872Z,-0.54
2019-05-06T03:00:20.050Z,-0.48
2019-05-06T03:02:53.850Z,-0.54
2019-05-06T03:05:23.841Z,-0.58
2019-05-06T03:07:57.681Z,-0.52
2019-05-06T03:10:27.124Z,-0.51
2019-05-06T03:12:57.817Z,-0.46
2019-05-06T03:15:28.731Z,-0.49
2019-05-06T03:17:59.595Z,-0.50
2019-05-06T03:20:49.275Z,-0.50
2019-05-06T03:23:24.157Z,-0.51
2019-05-06T03:25:54.743Z,-0.55
2019-05-06T03:28:25.741Z,-0.56
2019-05-06T03:30:57.243Z,-0.53
2019-05-06T03:33:47.793Z,-0.50
2019-05-06T03:36:15.730Z,-0.34
2019-05-06T03:38:33.743Z,-0.26
2019-05-06T03:41:04.957Z,-0.16
2019-05-06T03:43:36.043Z,-0.08
2019-05-06T03:46:14.025Z,0.03
2019-05-06T03:49:04.044Z,0.14
2019-05-06T03:51:34.710Z,0.23
2019-05-06T03:54:05.759Z,0.25
2019-05-06T03:56:38.262Z,0.40
2019-05-06T03:59:10.003Z,0.60
2019-05-06T04:01:43.009Z,0.67
2019-05-06T04:04:13.470Z,0.74
2019-05-06T04:06:44.730Z,0.87
2019-05-06T04:09:16.197Z,1.04
2019-05-06T04:11:47.154Z,1.03
2019-05-06T04:14:18.798Z,1.11
2019-05-06T04:16:53.972Z,1.20
2019-05-06T04:19:43.724Z,1.31
2019-05-06T04:22:16.160Z,1.42
2019-05-06T04:24:49.272Z,1.55
2019-05-06T04:27:26.956Z,1.74
2019-05-06T04:29:57.771Z,1.91
2019-05-06T04:32:28.663Z,1.94
2019-05-06T04:35:04.090Z,1.85
2019-05-06T04:37:34.093Z,1.80
2019-05-06T04:40:06.517Z,1.82
2019-05-06T04:42:38.683Z,1.77
2019-05-06T04:45:09.445Z,1.87
2019-05-06T04:47:43.364Z,1.95
2019-05-06T04:50:14.444Z,2.10
2019-05-06T04:52:48.119Z,2.21
2019-05-06T04:55:19.017Z,2.36
2019-05-06T04:57:49.645Z,2.42
2019-05-06T05:00:23.258Z,2.50
2019-05-06T05:02:55.003Z,2.68
2019-05-06T05:05:25.887Z,2.70
2019-05-06T05:07:56.822Z,2.86
2019-05-06T05:10:35.541Z,3.02
2019-05-06T05:13:12.567Z,3.23
2019-05-06T05:16:03.471Z,3.21
2019-05-06T05:18:42.384Z,3.32
2019-05-06T05:21:12.584Z,3.50
2019-05-06T05:23:43.775Z,3.71
2019-05-06T05:26:14.794Z,3.82
2019-05-06T05:28:45.504Z,3.97
2019-05-06T05:31:18.305Z,4.17
2019-05-06T05:33:49.230Z,4.38
2019-05-06T05:36:20.728Z,4.42
2019-05-06T05:38:52.244Z,4.53
2019-05-06T05:41:24.622Z,4.74
2019-05-06T05:43:57.197Z,4.98
2019-05-06T05:46:28.053Z,5.15
2019-05-06T05:49:02.757Z,5.40
2019-05-06T05:51:33.637Z,5.63
2019-05-06T05:54:04.971Z,5.88
2019-05-06T05:56:35.777Z,5.86
2019-05-06T05:59:07.027Z,6.17
2019-05-06T06:01:37.937Z,6.19
2019-05-06T06:04:08.665Z,6.34
2019-05-06T06:06:42.235Z,6.40
2019-05-06T06:09:12.798Z,6.43
2019-05-06T06:11:48.652Z,6.40
2019-05-06T06:14:30.152Z,6.58
2019-05-06T06:17:19.027Z,6.73
2019-05-06T06:19:54.710Z,6.82
2019-05-06T06:22:27.384Z,7.09
2019-05-06T06:24:59.189Z,7.16
2019-05-06T06:27:33.233Z,7.28
2019-05-06T06:30:06.719Z,7.40
2019-05-06T06:32:38.064Z,7.41
2019-05-06T06:35:14.534Z,7.51
2019-05-06T06:38:02.708Z,7.70
2019-05-06T06:40:33.541Z,7.76
2019-05-06T06:43:06.405Z,7.79
2019-05-06T06:45:37.625Z,8.06
2019-05-06T06:48:09.356Z,8.26
2019-05-06T06:50:40.167Z,8.33
2019-05-06T06:53:12.662Z,8.31
2019-05-06T06:55:44.307Z,8.43
2019-05-06T06:58:17.263Z,8.84
2019-05-06T07:01:03.833Z,8.71
2019-05-06T07:03:38.200Z,8.91
2019-05-06T07:06:14.356Z,9.20
2019-05-06T07:08:45.282Z,9.53
2019-05-06T07:11:17.450Z,11.67
2019-05-06T07:13:53.985Z,14.45
2019-05-06T07:16:25.301Z,16.44
2019-05-06T07:18:57.335Z,17.03
2019-05-06T07:21:39.406Z,18.19
2019-05-06T07:24:12.971Z,18.42
2019-05-06T07:26:44.945Z,18.60
2019-05-06T07:29:23.469Z,19.78
2019-05-06T07:31:50.463Z,18.22
2019-05-06T07:34:22.872Z,20.09
2019-05-06T07:36:53.844Z,19.68
2019-05-06T07:39:25.218Z,20.83
2019-05-06T07:42:02.329Z,21.05
2019-05-06T07:44:52.940Z,21.59
2019-05-06T07:47:37.507Z,21.38
2019-05-06T07:50:08.648Z,20.63
2019-05-06T07:52:39.486Z,20.49
2019-05-06T07:55:12.021Z,21.12
2019-05-06T07:57:42.935Z,21.34
2019-05-06T08:00:14.480Z,22.65
2019-05-06T08:02:45.714Z,23.29
2019-05-06T08:05:17.656Z,22.28
2019-05-06T08:07:48.697Z,22.35
2019-05-06T08:10:21.926Z,22.29
2019-05-06T08:12:52.732Z,22.12
2019-05-06T08:15:25.874Z,22.46
2019-05-06T08:17:56.649Z,22.67
2019-05-06T08:20:39.620Z,23.08
2019-05-06T08:23:19.132Z,22.83
2019-05-06T08:25:57.688Z,22.13
2019-05-06T08:28:37.409Z,21.57
2019-05-06T08:30:57.598Z,22.30
2019-05-06T08:33:28.605Z,21.94
2019-05-06T08:36:11.704Z,23.01
2019-05-06T08:38:53.194Z,20.48
2019-05-06T08:41:26.864Z,19.82
2019-05-06T08:43:58.065Z,20.92
2019-05-06T08:46:29.265Z,21.56
2019-05-06T08:49:02.847Z,22.29
2019-05-06T08:51:44.179Z,21.78
2019-05-06T08:54:22.928Z,21.71
2019-05-06T08:56:53.870Z,21.30
2019-05-06T08:59:24.736Z,20.46
2019-05-06T09:02:03.234Z,20.99
2019-05-06T09:04:34.395Z,21.15
2019-05-06T09:07:06.857Z,21.82
2019-05-06T09:09:39.105Z,21.50
2019-05-06T09:12:13.029Z,20.13
2019-05-06T09:14:44.260Z,20.30
2019-05-06T09:17:15.061Z,17.91
2019-05-06T09:19:46.118Z,17.25
2019-05-06T09:22:17.400Z,16.64
2019-05-06T09:24:48.059Z,16.80
2019-05-06T09:27:22.495Z,16.44
2019-05-06T09:29:54.337Z,16.96
2019-05-06T09:32:28.133Z,18.13
2019-05-06T09:34:58.823Z,17.76
2019-05-06T09:37:29.642Z,17.46
2019-05-06T09:40:02.784Z,17.13
2019-05-06T09:42:35.768Z,17.14
2019-05-06T09:45:08.693Z,16.66
2019-05-06T09:47:44.096Z,16.67
2019-05-06T09:50:19.069Z,15.35
2019-05-06T09:52:49.777Z,14.57
2019-05-06T09:55:24.975Z,14.55
2019-05-06T09:57:57.501Z,15.03
2019-05-06T10:00:32.750Z,15.33
2019-05-06T10:03:03.840Z,15.36
2019-05-06T10:05:34.727Z,15.75
2019-05-06T10:08:05.557Z,16.06
2019-05-06T10:10:36.290Z,15.97
2019-05-06T10:13:06.918Z,15.10
2019-05-06T10:15:37.825Z,15.24
2019-05-06T10:18:12.649Z,14.60
2019-05-06T10:20:44.992Z,14.46
2019-05-06T10:23:16.721Z,14.52
2019-05-06T10:25:47.625Z,14.76
2019-05-06T10:28:33.659Z,15.16
2019-05-06T10:31:07.218Z,16.11
2019-05-06T10:33:39.562Z,16.46
2019-05-06T10:36:12.883Z,17.51
2019-05-06T10:38:55.116Z,16.48
2019-05-06T10:41:35.165Z,16.09
2019-05-06T10:44:11.879Z,16.00
2019-05-06T10:46:43.137Z,15.81
2019-05-06T10:49:15.728Z,16.06
2019-05-06T10:51:48.669Z,15.50
2019-05-06T10:54:22.909Z,14.43
2019-05-06T10:57:07.951Z,15.12
2019-05-06T10:59:42.800Z,15.17
2019-05-06T11:02:20.544Z,15.41
2019-05-06T11:04:52.939Z,15.32
